Time;durP1;ratioP1;P1;durP2;ratioP2;P2;SDS_P1;SDS_P2;PMS_P1;PMS_P2;Temp;Humidity;BMP_temperature;BMP_pressure;BME280_temperature;BME280_humidity;BME280_pressure;Samples;Min_cycle;Max_cycle;Signal;HPM_P1;HPM_P2
2023/06/16 05:16:01;;;;;;;4.28;1.88;;;15.60;62.80;;;;;;6306292;22;20013;-73
2023/06/16 05:18:28;;;;;;;5.07;1.90;;;15.60;62.70;;;;;;6279228;22;20003;-71
2023/06/16 05:20:56;;;;;;;6.95;1.98;;;15.60;63.00;;;;;;6306282;22;20007;-71
2023/06/16 05:23:23;;;;;;;5.05;1.58;;;15.60;63.70;;;;;;6278995;22;20023;-72
2023/06/16 05:25:51;;;;;;;5.28;1.90;;;15.50;63.90;;;;;;6306172;22;20054;-71
2023/06/16 05:28:18;;;;;;;6.68;1.90;;;15.50;64.10;;;;;;6306217;22;20028;-71
2023/06/16 05:30:46;;;;;;;7.20;1.90;;;15.50;64.30;;;;;;6278590;22;20018;-71
2023/06/16 05:33:13;;;;;;;8.40;1.90;;;15.50;64.40;;;;;;6306424;22;20030;-71
2023/06/16 05:35:40;;;;;;;7.72;1.80;;;15.50;64.50;;;;;;6305960;22;19999;-68
2023/06/16 05:38:08;;;;;;;6.53;1.63;;;15.50;64.60;;;;;;6302295;22;20066;-67
2023/06/16 05:40:35;;;;;;;5.20;1.70;;;15.50;64.70;;;;;;6302731;22;19999;-68
2023/06/16 05:43:03;;;;;;;10.43;2.20;;;15.50;64.80;;;;;;6303010;22;20015;-67
2023/06/16 05:45:30;;;;;;;7.78;1.70;;;15.50;65.00;;;;;;6302898;22;20113;-67
2023/06/16 05:47:57;;;;;;;9.18;1.80;;;15.40;65.10;;;;;;6302777;22;20132;-67
2023/06/16 05:50:25;;;;;;;7.90;1.92;;;15.30;65.20;;;;;;6302207;22;20018;-67
2023/06/16 05:52:52;;;;;;;9.00;1.88;;;15.40;65.20;;;;;;6298743;22;20201;-68
2023/06/16 05:55:20;;;;;;;4.32;1.60;;;15.40;65.40;;;;;;6302712;22;20443;-68
2023/06/16 05:57:47;;;;;;;8.00;1.70;;;15.30;65.30;;;;;;6302449;22;20452;-69
2023/06/16 06:00:16;;;;;;;6.15;2.03;;;15.30;65.30;;;;;;6302233;22;20003;-68
2023/06/16 06:02:43;;;;;;;6.60;1.77;;;15.30;65.50;;;;;;6301936;22;20011;-69
2023/06/16 06:05:11;;;;;;;7.72;1.88;;;15.30;65.70;;;;;;6302270;22;20446;-68
2023/06/16 06:07:38;;;;;;;5.07;1.90;;;15.30;65.90;;;;;;6302408;22;20010;-68
2023/06/16 06:10:06;;;;;;;5.43;1.67;;;15.30;66.30;;;;;;6301883;22;20023;-68
2023/06/16 06:12:34;;;;;;;8.98;2.00;;;15.20;66.60;;;;;;6301182;22;20007;-68
2023/06/16 06:15:02;;;;;;;5.28;1.63;;;15.20;66.60;;;;;;6302566;22;20003;-69
2023/06/16 06:17:29;;;;;;;8.93;1.75;;;15.20;66.70;;;;;;6302176;22;20364;-69
2023/06/16 06:19:57;;;;;;;8.10;2.00;;;15.20;66.80;;;;;;6302568;22;20003;-69
2023/06/16 06:22:31;;;;;;;7.10;1.70;;;15.20;67.00;;;;;;6275584;22;20004;-68
2023/06/16 06:24:59;;;;;;;5.00;1.73;;;15.20;67.50;;;;;;6302482;22;20014;-68
2023/06/16 06:27:27;;;;;;;5.18;1.50;;;15.20;67.90;;;;;;6302516;22;20007;-68
2023/06/16 06:29:54;;;;;;;3.33;1.75;;;15.20;68.00;;;;;;6302169;22;20043;-68
2023/06/16 06:32:22;;;;;;;9.00;1.88;;;15.20;68.10;;;;;;6302830;22;20068;-69
2023/06/16 06:34:50;;;;;;;8.57;1.98;;;15.10;68.20;;;;;;6302286;22;20108;-69
2023/06/16 06:37:18;;;;;;;7.65;1.80;;;15.10;68.50;;;;;;6301859;22;20015;-69
2023/06/16 06:39:46;;;;;;;7.38;2.08;;;15.20;68.70;;;;;;6301761;22;20342;-69
2023/06/16 06:42:15;;;;;;;9.25;2.05;;;15.20;68.80;;;;;;6302333;22;20007;-68
2023/06/16 06:44:42;;;;;;;5.85;1.73;;;15.20;69.10;;;;;;6302134;22;20007;-69
2023/06/16 06:47:09;;;;;;;8.85;1.80;;;15.20;69.00;;;;;;6302415;22;20078;-68
2023/06/16 06:49:37;;;;;;;5.90;2.00;;;15.10;69.00;;;;;;6302025;22;20452;-68
2023/06/16 06:52:05;;;;;;;6.47;2.40;;;15.10;69.10;;;;;;6304489;22;20391;-68
2023/06/16 06:54:32;;;;;;;6.20;1.50;;;15.00;69.10;;;;;;6302221;22;20038;-68
2023/06/16 06:57:00;;;;;;;6.38;1.75;;;15.10;69.20;;;;;;6304901;22;20483;-68
2023/06/16 06:59:27;;;;;;;6.70;1.75;;;15.00;69.20;;;;;;6304198;22;20619;-68
2023/06/16 07:01:55;;;;;;;5.53;1.52;;;15.00;69.30;;;;;;6301754;22;20104;-69
2023/06/16 07:04:22;;;;;;;8.65;1.73;;;15.00;69.50;;;;;;6304645;22;20349;-69
2023/06/16 07:06:50;;;;;;;5.85;1.85;;;15.00;69.80;;;;;;6303702;22;20004;-69
2023/06/16 07:09:17;;;;;;;8.60;2.08;;;15.00;69.90;;;;;;6302918;22;20043;-68
2023/06/16 07:11:45;;;;;;;3.63;1.40;;;15.00;70.00;;;;;;6300390;22;20030;-69
2023/06/16 07:14:12;;;;;;;7.32;1.67;;;14.90;70.10;;;;;;6302868;22;20141;-69
2023/06/16 07:16:40;;;;;;;6.00;1.67;;;14.90;70.30;;;;;;6275780;22;20007;-69
2023/06/16 07:19:07;;;;;;;5.80;1.70;;;14.90;70.40;;;;;;6303246;22;20007;-68
2023/06/16 07:21:34;;;;;;;5.40;1.60;;;14.80;70.40;;;;;;6302611;22;20141;-68
2023/06/16 07:24:02;;;;;;;6.20;1.60;;;14.80;70.50;;;;;;6303975;22;20491;-69
2023/06/16 07:26:29;;;;;;;6.45;1.63;;;14.80;70.60;;;;;;6303714;22;20322;-69
2023/06/16 07:28:57;;;;;;;2.65;1.45;;;14.80;70.70;;;;;;6302520;22;20783;-69
2023/06/16 07:31:25;;;;;;;5.95;1.90;;;14.70;70.60;;;;;;6302553;22;20007;-69
2023/06/16 07:33:53;;;;;;;6.40;1.60;;;14.80;70.70;;;;;;6302875;22;20060;-69
2023/06/16 07:36:20;;;;;;;7.35;1.65;;;14.80;70.60;;;;;;6302044;22;19996;-69
2023/06/16 07:38:47;;;;;;;5.43;1.52;;;14.70;70.80;;;;;;6302731;22;20445;-69
2023/06/16 07:41:15;;;;;;;7.85;1.88;;;14.70;70.70;;;;;;6303660;22;20056;-69
2023/06/16 07:43:42;;;;;;;8.00;2.85;;;14.70;70.60;;;;;;6302531;22;20380;-69
2023/06/16 07:46:10;;;;;;;5.70;2.00;;;14.70;70.60;;;;;;6303768;22;20522;-68
2023/06/16 07:48:37;;;;;;;9.95;2.58;;;14.70;70.70;;;;;;6302641;22;20011;-69
2023/06/16 07:51:05;;;;;;;5.15;2.60;;;14.70;70.60;;;;;;6303771;22;20338;-69
2023/06/16 07:53:32;;;;;;;7.88;2.72;;;14.70;70.70;;;;;;6299847;22;20011;-69
2023/06/16 07:56:00;;;;;;;5.90;2.30;;;14.60;70.80;;;;;;6303523;22;20003;-69
2023/06/16 07:58:27;;;;;;;5.78;2.35;;;14.70;70.90;;;;;;6302835;22;20300;-72
2023/06/16 08:00:55;;;;;;;4.00;1.85;;;14.60;70.90;;;;;;6303403;22;20087;-73
2023/06/16 21:02:33;;;;;;;5.93;2.50;;;9.20;85.10;;;;;;6299787;22;20054;-73
2023/06/16 21:05:01;;;;;;;5.60;3.13;;;9.20;85.30;;;;;;6302786;22;20520;-71
2023/06/16 21:07:29;;;;;;;5.60;2.97;;;9.20;85.30;;;;;;6302355;22;20029;-73
2023/06/16 21:09:57;;;;;;;7.22;3.03;;;9.20;85.10;;;;;;6302483;22;20010;-73
2023/06/16 21:12:24;;;;;;;5.57;2.63;;;9.20;85.20;;;;;;6303016;22;20003;-73
2023/06/16 21:14:52;;;;;;;7.13;2.55;;;9.20;85.30;;;;;;6275158;22;20383;-73
2023/06/16 21:17:19;;;;;;;7.72;2.53;;;9.30;85.40;;;;;;6302332;22;20015;-73
2023/06/16 21:19:47;;;;;;;5.32;2.60;;;9.30;85.30;;;;;;6303276;22;20003;-75
2023/06/16 21:22:15;;;;;;;5.13;2.80;;;9.30;85.30;;;;;;6275624;22;20062;-76
2023/06/16 21:24:43;;;;;;;3.58;2.50;;;9.30;85.40;;;;;;6303017;22;20010;-75
2023/06/16 21:27:10;;;;;;;3.85;2.38;;;9.40;85.40;;;;;;6303222;22;20003;-75
2023/06/16 21:29:38;;;;;;;6.97;2.95;;;9.40;85.30;;;;;;6302751;22;20334;-73
2023/06/16 21:32:05;;;;;;;5.18;2.78;;;9.40;85.50;;;;;;6301924;22;20397;-74
2023/06/16 21:34:33;;;;;;;7.38;2.95;;;9.40;85.60;;;;;;6276044;22;20019;-73
2023/06/16 21:37:02;;;;;;;5.03;2.90;;;9.40;85.40;;;;;;6302670;22;20326;-73
2023/06/16 21:39:31;;;;;;;4.47;2.67;;;9.40;85.30;;;;;;6302373;22;20379;-73
2023/06/16 21:41:58;;;;;;;5.03;3.13;;;9.40;85.30;;;;;;6300632;22;20011;-75
2023/06/16 21:44:26;;;;;;;7.32;3.28;;;9.40;85.30;;;;;;6301592;22;20345;-75
2023/06/16 21:46:53;;;;;;;8.77;2.92;;;9.40;85.30;;;;;;6302812;22;20011;-75
2023/06/16 21:49:20;;;;;;;6.15;3.15;;;9.50;85.50;;;;;;6302731;22;20093;-76
2023/06/16 21:51:48;;;;;;;5.55;3.00;;;9.50;85.60;;;;;;6302538;22;20110;-77
2023/06/16 21:54:15;;;;;;;5.68;3.20;;;9.50;85.50;;;;;;6301674;22;20323;-74
2023/06/16 21:56:43;;;;;;;5.18;2.70;;;9.60;85.50;;;;;;6301067;22;20110;-76
2023/06/16 21:59:10;;;;;;;7.43;3.08;;;9.60;85.50;;;;;;6299932;22;20008;-76
2023/06/16 22:01:37;;;;;;;7.15;3.40;;;9.60;85.70;;;;;;6301900;22;20054;-77
2023/06/16 22:04:05;;;;;;;7.40;3.35;;;9.60;85.50;;;;;;6302205;22;20007;-76
2023/06/16 22:06:33;;;;;;;6.45;3.30;;;9.60;85.30;;;;;;6302005;22;20011;-74
2023/06/16 22:09:03;;;;;;;5.43;2.90;;;9.70;85.00;;;;;;6302016;22;20014;-74
2023/06/16 22:11:32;;;;;;;7.30;3.20;;;9.70;84.80;;;;;;6302836;22;20346;-75
2023/06/16 22:13:59;;;;;;;7.93;3.10;;;9.70;84.70;;;;;;6302625;22;20011;-74
2023/06/16 22:16:26;;;;;;;6.65;3.30;;;9.70;84.50;;;;;;6274509;22;20478;-73
2023/06/16 22:18:54;;;;;;;5.35;2.80;;;9.70;84.40;;;;;;6300660;22;20074;-73
2023/06/16 22:21:22;;;;;;;4.00;2.58;;;9.80;84.20;;;;;;6274873;22;20053;-73
2023/06/16 22:23:49;;;;;;;8.80;2.65;;;9.90;84.10;;;;;;6302599;22;20104;-73
2023/06/16 22:26:20;;;;;;;8.00;2.95;;;9.90;83.90;;;;;;6304719;22;20342;-72
2023/06/16 22:28:47;;;;;;;8.02;2.78;;;9.90;83.70;;;;;;6304591;22;20057;-71
2023/06/16 22:31:15;;;;;;;7.15;2.97;;;9.90;83.60;;;;;;6278790;22;20099;-71
2023/06/16 22:33:43;;;;;;;5.07;2.72;;;10.00;83.60;;;;;;6305857;22;20460;-71
2023/06/16 22:36:10;;;;;;;5.10;2.83;;;10.10;83.30;;;;;;6304615;22;20011;-71
2023/06/16 22:38:37;;;;;;;5.53;2.88;;;10.10;83.00;;;;;;6304391;22;20068;-71
2023/06/16 22:41:05;;;;;;;5.90;3.05;;;10.20;83.00;;;;;;6305714;22;20078;-71
2023/06/16 22:43:35;;;;;;;5.82;2.85;;;10.20;82.80;;;;;;6306025;22;20401;-70
2023/06/16 22:46:03;;;;;;;10.05;3.30;;;10.20;83.00;;;;;;6305563;22;19999;-69
2023/06/16 22:48:32;;;;;;;5.30;2.92;;;10.20;82.70;;;;;;6278216;22;20003;-69
2023/06/16 22:50:59;;;;;;;6.38;3.38;;;10.30;82.30;;;;;;6305267;22;20026;-70
2023/06/16 22:53:26;;;;;;;9.05;3.03;;;10.30;82.50;;;;;;6306389;22;20493;-66
2023/06/16 22:55:54;;;;;;;7.25;3.40;;;10.30;82.10;;;;;;6303424;22;20014;-71
2023/06/16 22:58:21;;;;;;;8.45;3.00;;;10.40;81.90;;;;;;6303563;22;20007;-71
2023/06/16 23:00:49;;;;;;;7.47;3.35;;;10.40;81.70;;;;;;6277133;22;20003;-71
2023/06/16 23:03:16;;;;;;;6.20;3.17;;;10.40;81.70;;;;;;6302486;22;20011;-72
2023/06/16 23:05:44;;;;;;;8.50;3.20;;;10.50;81.50;;;;;;6305415;22;20070;-71
2023/06/16 23:08:11;;;;;;;7.75;3.15;;;10.50;81.70;;;;;;6304694;22;20003;-71
2023/06/16 23:10:39;;;;;;;5.05;2.95;;;10.50;81.30;;;;;;6305111;22;20022;-71
2023/06/16 23:13:06;;;;;;;6.82;3.20;;;10.60;81.00;;;;;;6305095;22;20433;-71
2023/06/16 23:15:34;;;;;;;6.97;3.15;;;10.70;81.20;;;;;;6304717;22;20325;-71
2023/06/16 23:18:01;;;;;;;6.38;3.13;;;10.70;80.90;;;;;;6305768;22;20078;-70
2023/06/16 23:20:33;;;;;;;6.75;3.08;;;10.70;81.00;;;;;;6304536;22;20007;-71
2023/06/16 23:23:02;;;;;;;8.45;3.40;;;10.70;80.90;;;;;;6253961;22;20030;-72
2023/06/16 23:25:37;;;;;;;7.35;2.95;;;10.80;80.80;;;;;;6279289;22;20030;-70
2023/06/16 23:28:05;;;;;;;6.90;3.33;;;10.80;80.50;;;;;;6278104;22;20006;-70
2023/06/16 23:30:37;;;;;;;6.72;2.70;;;10.80;80.60;;;;;;6278463;22;20306;-69
2023/06/16 23:33:09;;;;;;;6.93;2.97;;;10.90;80.20;;;;;;6306493;22;20056;-67
2023/06/16 23:35:36;;;;;;;7.93;3.15;;;11.00;80.00;;;;;;6307169;22;20073;-68
2023/06/16 23:38:04;;;;;;;4.55;2.75;;;11.00;80.00;;;;;;6307087;22;20348;-68
2023/06/16 23:40:31;;;;;;;7.63;3.08;;;11.10;79.90;;;;;;6307522;22;20007;-66
2023/06/16 23:42:59;;;;;;;5.90;3.15;;;11.00;79.80;;;;;;6307924;22;19999;-66
2023/06/16 23:45:27;;;;;;;8.25;3.30;;;11.10;79.50;;;;;;6307555;22;20015;-70
2023/06/16 23:47:54;;;;;;;8.88;3.30;;;11.10;79.50;;;;;;6281227;22;20004;-71
2023/06/16 23:50:22;;;;;;;4.95;2.75;;;11.20;79.30;;;;;;6307559;22;20403;-71
